createdAt,value
2023-03-31T00:00:11.538Z,12.30
2023-03-31T00:01:11.524Z,13.60
2023-03-31T00:02:11.531Z,11.70
2023-03-31T00:03:11.515Z,11.20
2023-03-31T00:04:11.642Z,15.70
2023-03-31T00:05:11.453Z,15.90
2023-03-31T00:06:11.487Z,14.80
2023-03-31T00:07:11.437Z,14.30
2023-03-31T00:08:11.420Z,13.00
2023-03-31T00:09:11.829Z,10.90
2023-03-31T00:11:11.414Z,8.40
2023-03-31T00:12:11.459Z,11.10
2023-03-31T00:13:11.365Z,12.30
2023-03-31T00:14:11.364Z,15.90
2023-03-31T00:15:11.358Z,12.50
2023-03-31T00:16:11.422Z,11.20
2023-03-31T00:17:11.359Z,12.40
2023-03-31T00:18:11.325Z,10.90
2023-03-31T00:19:11.298Z,14.10
2023-03-31T00:20:11.285Z,10.80
2023-03-31T00:21:11.282Z,14.00
2023-03-31T00:22:11.298Z,8.90
2023-03-31T00:23:11.391Z,11.10
2023-03-31T00:24:11.270Z,12.90
2023-03-31T00:25:11.356Z,11.60
2023-03-31T00:26:11.269Z,10.90
2023-03-31T00:27:11.274Z,11.20
2023-03-31T00:28:11.193Z,13.20
2023-03-31T00:29:11.186Z,11.70
2023-03-31T00:30:11.184Z,12.80
2023-03-31T00:31:11.164Z,13.40
2023-03-31T00:32:11.257Z,9.70
2023-03-31T00:33:11.194Z,14.00
2023-03-31T00:34:11.135Z,14.10
2023-03-31T00:35:11.120Z,11.90
2023-03-31T00:36:11.116Z,13.00
2023-03-31T00:37:11.122Z,13.40
2023-03-31T00:38:11.151Z,15.20
2023-03-31T00:39:11.265Z,12.90
2023-03-31T00:40:11.070Z,10.80
2023-03-31T00:41:11.207Z,16.20
2023-03-31T00:42:11.107Z,12.40
2023-03-31T00:43:11.218Z,16.40
2023-03-31T00:44:11.149Z,13.90
2023-03-31T00:45:11.246Z,13.10
2023-03-31T00:46:11.234Z,11.40
2023-03-31T00:47:11.136Z,11.70
2023-03-31T00:48:10.994Z,12.90
2023-03-31T00:49:11.101Z,16.00
2023-03-31T00:50:10.957Z,13.80
2023-03-31T00:51:11.071Z,10.00
2023-03-31T00:52:11.079Z,10.00
2023-03-31T00:53:11.118Z,13.00
2023-03-31T00:54:11.036Z,14.50
2023-03-31T00:55:11.109Z,11.60
2023-03-31T00:56:11.042Z,16.60
2023-03-31T00:57:11.128Z,10.80
2023-03-31T00:58:11.026Z,13.90
2023-03-31T00:59:10.995Z,8.50
2023-03-31T01:00:10.994Z,12.50
2023-03-31T01:01:10.930Z,10.60
2023-03-31T01:02:10.847Z,10.00
2023-03-31T01:03:10.905Z,13.20
2023-03-31T01:04:10.890Z,13.50
2023-03-31T01:05:10.781Z,16.90
2023-03-31T01:06:10.809Z,12.30
2023-03-31T01:07:10.807Z,11.60
2023-03-31T01:08:10.756Z,11.30
2023-03-31T01:09:10.738Z,11.10
2023-03-31T01:10:10.738Z,12.10
2023-03-31T01:11:10.718Z,13.40
2023-03-31T01:12:10.729Z,13.40
2023-03-31T01:13:10.730Z,11.30
2023-03-31T01:14:10.707Z,10.40
2023-03-31T01:15:10.691Z,8.30
2023-03-31T01:16:10.666Z,11.90
2023-03-31T01:17:10.907Z,9.30
2023-03-31T01:18:10.690Z,11.50
2023-03-31T01:19:10.653Z,9.20
2023-03-31T01:20:10.630Z,14.70
2023-03-31T01:21:10.625Z,13.60
2023-03-31T01:22:10.631Z,14.00
2023-03-31T01:23:10.591Z,10.80
2023-03-31T01:24:10.591Z,10.20
2023-03-31T01:25:10.566Z,13.00
2023-03-31T01:26:10.575Z,12.70
2023-03-31T01:27:10.555Z,11.20
2023-03-31T01:28:10.533Z,13.80
2023-03-31T01:29:10.527Z,12.40
2023-03-31T01:30:10.514Z,16.70
2023-03-31T01:31:10.678Z,10.00
2023-03-31T01:32:10.501Z,8.50
2023-03-31T01:33:10.637Z,6.50
2023-03-31T01:34:10.470Z,11.00
2023-03-31T01:35:10.447Z,12.60
2023-03-31T01:36:10.476Z,9.90
2023-03-31T01:37:10.441Z,9.60
2023-03-31T01:38:10.421Z,10.70
2023-03-31T01:39:10.411Z,10.40
2023-03-31T01:40:10.404Z,10.80
2023-03-31T01:41:10.382Z,12.80
2023-03-31T01:42:10.397Z,13.30
2023-03-31T01:43:10.370Z,11.20
2023-03-31T01:44:10.362Z,13.30
2023-03-31T01:45:10.351Z,14.20
2023-03-31T01:46:10.370Z,9.70
2023-03-31T01:47:10.333Z,9.90
2023-03-31T01:48:10.312Z,12.70
2023-03-31T01:49:10.302Z,10.70
2023-03-31T01:50:10.298Z,9.50
2023-03-31T01:51:10.275Z,9.50
2023-03-31T01:52:10.311Z,8.30
2023-03-31T01:53:10.364Z,10.10
2023-03-31T01:54:10.242Z,12.20
2023-03-31T01:55:10.377Z,8.10
2023-03-31T01:56:10.216Z,11.90
2023-03-31T01:57:10.275Z,11.60
2023-03-31T01:58:10.202Z,14.10
2023-03-31T01:59:10.182Z,12.00
2023-03-31T02:00:10.244Z,8.80
2023-03-31T02:01:10.228Z,11.20
2023-03-31T02:02:10.246Z,10.20
2023-03-31T02:03:10.281Z,10.10
2023-03-31T02:04:10.181Z,12.50
2023-03-31T02:05:10.140Z,12.40
2023-03-31T02:06:10.108Z,10.50
2023-03-31T02:07:10.171Z,10.40
2023-03-31T02:08:10.118Z,10.80
2023-03-31T02:09:10.083Z,9.80
2023-03-31T02:10:10.080Z,10.60
2023-03-31T02:11:10.182Z,8.30
2023-03-31T02:12:10.063Z,12.00
2023-03-31T02:13:10.036Z,10.90
2023-03-31T02:14:10.019Z,10.20
2023-03-31T02:15:10.009Z,10.40
2023-03-31T02:16:10.145Z,13.70
2023-03-31T02:17:10.010Z,12.90
2023-03-31T02:18:09.974Z,12.40
2023-03-31T02:19:09.981Z,12.50
2023-03-31T02:20:10.150Z,8.70
2023-03-31T02:21:09.950Z,14.30
2023-03-31T02:22:09.981Z,9.60
2023-03-31T02:23:09.919Z,9.40
2023-03-31T02:24:09.915Z,10.30
2023-03-31T02:25:09.910Z,10.90
2023-03-31T02:26:09.901Z,9.70
2023-03-31T02:27:09.898Z,13.50
2023-03-31T02:28:09.866Z,9.70
2023-03-31T02:29:09.856Z,10.20
2023-03-31T02:30:09.846Z,12.60
2023-03-31T02:31:09.914Z,8.30
2023-03-31T02:32:09.839Z,7.70
2023-03-31T02:33:09.868Z,8.60
2023-03-31T02:34:09.794Z,8.40
2023-03-31T02:35:09.787Z,9.80
2023-03-31T02:36:10.195Z,11.30
2023-03-31T02:37:09.779Z,9.00
2023-03-31T02:38:09.761Z,11.50
2023-03-31T02:39:09.761Z,11.60
2023-03-31T02:40:09.718Z,11.90
2023-03-31T02:41:09.846Z,11.30
2023-03-31T02:42:09.732Z,8.30
2023-03-31T02:43:09.852Z,10.00
2023-03-31T02:44:09.691Z,12.10
2023-03-31T02:45:09.670Z,8.10
2023-03-31T02:46:09.880Z,10.50
2023-03-31T02:47:09.786Z,9.50
2023-03-31T02:48:09.848Z,12.80
2023-03-31T02:49:09.626Z,11.80
2023-03-31T02:50:09.677Z,9.70
2023-03-31T02:51:09.619Z,10.50
2023-03-31T02:52:09.817Z,11.10
2023-03-31T02:53:09.588Z,14.30
2023-03-31T02:54:09.587Z,8.70
2023-03-31T02:55:09.561Z,8.90
2023-03-31T02:56:09.550Z,12.70
2023-03-31T02:57:09.953Z,12.70
2023-03-31T02:58:09.528Z,8.70
2023-03-31T02:59:09.696Z,9.80
2023-03-31T03:00:09.548Z,12.90
2023-03-31T03:01:09.558Z,9.10
2023-03-31T03:02:09.705Z,8.20
2023-03-31T03:03:09.791Z,12.50
2023-03-31T03:04:09.671Z,12.50
2023-03-31T03:05:09.470Z,14.50
2023-03-31T03:06:09.559Z,8.20
2023-03-31T03:07:09.601Z,8.70
2023-03-31T03:08:09.512Z,12.50
2023-03-31T03:09:09.495Z,13.60
2023-03-31T03:10:09.625Z,9.10
2023-03-31T03:11:09.672Z,9.20
2023-03-31T03:12:09.386Z,11.30
2023-03-31T03:13:10.133Z,10.00
2023-03-31T03:14:09.348Z,7.30
2023-03-31T03:15:09.411Z,10.60
2023-03-31T03:16:09.404Z,7.40
2023-03-31T03:17:09.369Z,12.40
2023-03-31T03:18:09.366Z,10.30
2023-03-31T03:19:09.292Z,8.70
2023-03-31T03:20:09.294Z,10.90
2023-03-31T03:21:09.315Z,10.10
2023-03-31T03:22:09.426Z,11.80
2023-03-31T03:23:10.260Z,10.00
2023-03-31T03:24:09.239Z,10.40
2023-03-31T03:25:09.227Z,9.50
2023-03-31T03:26:09.204Z,9.70
2023-03-31T03:27:09.220Z,8.00
2023-03-31T03:28:09.343Z,10.80
2023-03-31T03:29:09.371Z,9.60
2023-03-31T03:30:09.185Z,8.70
2023-03-31T03:31:09.223Z,8.80
2023-03-31T03:32:09.175Z,10.20
2023-03-31T03:33:09.173Z,11.10
2023-03-31T03:34:09.120Z,8.90
2023-03-31T03:35:09.112Z,8.90
2023-03-31T03:36:09.473Z,8.80
2023-03-31T03:37:09.144Z,8.00
2023-03-31T03:38:09.088Z,8.90
2023-03-31T03:39:09.058Z,10.10
2023-03-31T03:40:09.044Z,9.80
2023-03-31T03:41:14.057Z,9.10
2023-03-31T03:42:09.089Z,10.30
2023-03-31T03:43:09.039Z,9.90
2023-03-31T03:44:09.148Z,6.20
2023-03-31T03:45:09.008Z,9.80
2023-03-31T03:46:09.221Z,10.30
2023-03-31T03:47:09.131Z,11.80
2023-03-31T03:48:09.033Z,9.20
2023-03-31T03:49:08.961Z,10.50
2023-03-31T03:50:08.938Z,10.20
2023-03-31T03:51:08.976Z,9.10
2023-03-31T03:52:08.925Z,9.60
2023-03-31T03:53:08.930Z,10.40
2023-03-31T03:54:08.888Z,10.40
2023-03-31T03:55:08.874Z,10.20
2023-03-31T03:56:08.882Z,12.20
2023-03-31T03:57:08.898Z,10.50
2023-03-31T03:58:08.859Z,7.00
2023-03-31T03:59:08.900Z,11.50
2023-03-31T04:00:08.835Z,10.30
2023-03-31T04:01:08.809Z,9.40
2023-03-31T04:02:08.872Z,9.70
2023-03-31T04:03:08.861Z,10.20
2023-03-31T04:04:08.769Z,8.70
2023-03-31T04:05:08.777Z,11.20
2023-03-31T04:06:09.061Z,9.90
2023-03-31T04:07:08.748Z,9.30
2023-03-31T04:08:08.769Z,10.10
2023-03-31T04:09:08.877Z,11.90
2023-03-31T04:10:08.712Z,19.00
2023-03-31T04:11:08.695Z,12.10
2023-03-31T04:12:08.684Z,14.80
2023-03-31T04:13:08.692Z,9.30
2023-03-31T04:14:08.667Z,13.90
2023-03-31T04:15:08.657Z,13.30
2023-03-31T04:16:08.806Z,14.10
2023-03-31T04:17:08.617Z,15.20
2023-03-31T04:18:08.666Z,10.10
2023-03-31T04:19:08.600Z,11.50
2023-03-31T04:20:08.619Z,9.80
2023-03-31T04:21:08.578Z,10.30
2023-03-31T04:22:08.573Z,12.80
2023-03-31T04:23:08.596Z,15.00
2023-03-31T04:24:08.557Z,15.90
2023-03-31T04:25:08.555Z,13.90
2023-03-31T04:26:08.661Z,19.80
2023-03-31T04:27:08.520Z,13.10
2023-03-31T04:28:16.677Z,15.90
2023-03-31T04:29:08.485Z,12.40
2023-03-31T04:30:08.480Z,14.20
2023-03-31T04:31:08.463Z,17.50
2023-03-31T04:32:08.585Z,13.80
2023-03-31T04:33:08.491Z,17.20
2023-03-31T04:34:08.436Z,14.00
2023-03-31T04:35:08.435Z,18.70
2023-03-31T04:36:08.831Z,16.40
2023-03-31T04:37:08.430Z,17.80
2023-03-31T04:38:08.399Z,16.40
2023-03-31T04:39:08.388Z,20.20
2023-03-31T04:40:08.367Z,12.90
2023-03-31T04:41:08.356Z,14.40
2023-03-31T04:42:08.344Z,17.10
2023-03-31T04:43:08.359Z,16.30
2023-03-31T04:44:08.317Z,15.00
2023-03-31T04:45:08.311Z,18.10
2023-03-31T04:46:08.609Z,14.50
2023-03-31T04:47:08.284Z,15.90
2023-03-31T04:48:08.406Z,13.70
2023-03-31T04:49:08.258Z,15.20
2023-03-31T04:50:08.678Z,12.80
2023-03-31T04:51:08.235Z,14.90
2023-03-31T04:52:08.220Z,13.80
2023-03-31T04:53:08.238Z,17.90
2023-03-31T04:54:08.216Z,16.70
2023-03-31T04:55:08.198Z,16.90
2023-03-31T04:56:08.584Z,18.40
2023-03-31T04:57:08.260Z,14.40
2023-03-31T04:58:08.188Z,14.80
2023-03-31T04:59:08.173Z,21.20
2023-03-31T05:00:08.156Z,14.50
2023-03-31T05:01:08.206Z,15.80
2023-03-31T05:02:08.182Z,14.40
2023-03-31T05:03:08.190Z,18.20
2023-03-31T05:04:08.097Z,15.60
2023-03-31T05:05:08.077Z,13.20
2023-03-31T05:06:08.519Z,15.10
2023-03-31T05:07:08.081Z,18.10
2023-03-31T05:08:08.078Z,16.50
2023-03-31T05:09:08.055Z,14.30
2023-03-31T05:10:08.060Z,18.70
2023-03-31T05:11:08.027Z,14.70
2023-03-31T05:12:08.016Z,17.00
2023-03-31T05:13:08.005Z,14.50
2023-03-31T05:14:07.990Z,13.20
2023-03-31T05:15:07.979Z,13.70
2023-03-31T05:16:08.298Z,13.60
2023-03-31T05:17:07.958Z,17.60
2023-03-31T05:18:08.130Z,13.80
2023-03-31T05:19:07.926Z,15.60
2023-03-31T05:20:07.937Z,14.30
2023-03-31T05:21:07.914Z,18.20
2023-03-31T05:22:07.925Z,17.00
2023-03-31T05:23:07.938Z,14.60
2023-03-31T05:24:07.901Z,17.20
2023-03-31T05:25:07.919Z,13.90
2023-03-31T05:26:08.095Z,13.70
2023-03-31T05:27:07.849Z,13.80
2023-03-31T05:28:07.860Z,15.00
2023-03-31T05:29:07.818Z,13.50
2023-03-31T05:30:07.842Z,14.90
2023-03-31T05:31:08.354Z,16.20
2023-03-31T05:32:07.954Z,17.90
2023-03-31T05:33:07.921Z,12.20
2023-03-31T05:34:07.763Z,12.80
2023-03-31T05:35:07.820Z,13.30
2023-03-31T05:36:08.046Z,17.30
2023-03-31T05:37:07.889Z,14.20
2023-03-31T05:38:07.741Z,16.70
2023-03-31T05:39:07.797Z,14.90
2023-03-31T05:40:07.692Z,15.40
2023-03-31T05:41:07.682Z,11.30
2023-03-31T05:42:07.695Z,15.40
2023-03-31T05:43:07.673Z,11.10
2023-03-31T05:44:07.644Z,12.80
2023-03-31T05:45:09.211Z,18.00
2023-03-31T05:46:08.112Z,15.10
2023-03-31T05:47:07.609Z,13.50
2023-03-31T05:48:07.695Z,14.60
2023-03-31T05:49:07.594Z,15.30
2023-03-31T05:50:07.867Z,12.80
2023-03-31T05:51:07.568Z,15.40
2023-03-31T05:52:07.576Z,15.10
2023-03-31T05:53:07.571Z,14.30
2023-03-31T05:54:07.551Z,15.00
2023-03-31T05:55:07.541Z,14.50
2023-03-31T05:56:07.631Z,12.70
2023-03-31T05:57:07.542Z,13.40
2023-03-31T05:58:07.524Z,15.30
2023-03-31T05:59:07.483Z,16.30
2023-03-31T06:00:07.453Z,14.90
2023-03-31T06:01:07.790Z,10.30
2023-03-31T06:02:07.454Z,12.60
2023-03-31T06:03:07.540Z,11.80
2023-03-31T06:04:07.450Z,15.30
2023-03-31T06:05:07.401Z,15.40
2023-03-31T06:06:07.394Z,15.60
2023-03-31T06:07:07.392Z,14.30
2023-03-31T06:08:07.385Z,12.40
2023-03-31T06:09:07.377Z,12.40
2023-03-31T06:10:07.343Z,12.10
2023-03-31T06:11:07.846Z,13.90
2023-03-31T06:12:07.340Z,12.30
2023-03-31T06:13:07.326Z,17.80
2023-03-31T06:14:07.297Z,15.40
2023-03-31T06:15:07.311Z,13.40
2023-03-31T06:16:07.308Z,16.40
2023-03-31T06:17:07.655Z,15.50
2023-03-31T06:18:07.285Z,17.70
2023-03-31T06:19:07.246Z,12.50
2023-03-31T06:20:19.674Z,14.60
2023-03-31T06:21:07.526Z,12.30
2023-03-31T06:22:07.225Z,14.10
2023-03-31T06:23:07.280Z,17.40
2023-03-31T06:24:07.198Z,17.30
2023-03-31T06:25:07.198Z,16.20
2023-03-31T06:26:07.185Z,14.60
2023-03-31T06:27:07.204Z,15.00
2023-03-31T06:28:07.175Z,16.50
2023-03-31T06:29:07.219Z,14.30
2023-03-31T06:30:07.171Z,16.00
2023-03-31T06:31:07.408Z,14.00
2023-03-31T06:32:07.144Z,15.90
2023-03-31T06:33:07.215Z,12.70
2023-03-31T06:34:07.086Z,13.10
2023-03-31T06:35:07.083Z,13.50
2023-03-31T06:36:07.143Z,10.40
2023-03-31T06:37:07.074Z,15.30
2023-03-31T06:38:07.028Z,13.00
2023-03-31T06:39:07.053Z,16.30
2023-03-31T06:40:07.032Z,10.80
2023-03-31T06:41:07.261Z,12.50
2023-03-31T06:42:06.994Z,12.40
2023-03-31T06:43:07.005Z,15.00
2023-03-31T06:44:07.005Z,17.00
2023-03-31T06:45:06.997Z,10.90
2023-03-31T06:46:07.410Z,12.80
2023-03-31T06:47:06.968Z,15.40
2023-03-31T06:48:07.009Z,13.00
2023-03-31T06:49:06.965Z,14.40
2023-03-31T06:50:06.909Z,15.30
2023-03-31T06:51:06.922Z,16.00
2023-03-31T06:52:06.884Z,11.30
2023-03-31T06:53:06.902Z,11.00
2023-03-31T06:54:07.024Z,14.50
2023-03-31T06:55:06.888Z,13.00
2023-03-31T06:56:07.025Z,14.30
2023-03-31T06:57:06.890Z,13.30
2023-03-31T06:58:06.837Z,12.20
2023-03-31T06:59:06.832Z,13.40
2023-03-31T07:00:06.924Z,12.90
2023-03-31T07:01:07.205Z,13.90
2023-03-31T07:02:06.801Z,10.90
2023-03-31T07:03:06.911Z,13.20
2023-03-31T07:04:06.788Z,12.60
2023-03-31T07:05:06.734Z,11.70
2023-03-31T07:06:06.768Z,13.60
2023-03-31T07:07:06.720Z,14.00
2023-03-31T07:08:06.703Z,11.10
2023-03-31T07:09:06.725Z,12.00
2023-03-31T07:10:07.307Z,9.80
2023-03-31T07:11:07.020Z,11.90
2023-03-31T07:12:06.836Z,12.00
2023-03-31T07:13:06.669Z,11.00
2023-03-31T07:14:07.727Z,13.80
2023-03-31T07:15:06.615Z,14.70
2023-03-31T07:16:07.255Z,10.80
2023-03-31T07:17:06.595Z,11.30
2023-03-31T07:18:06.712Z,11.20
2023-03-31T07:19:06.625Z,13.60
2023-03-31T07:20:06.598Z,9.00
2023-03-31T07:21:09.071Z,11.70
2023-03-31T07:22:06.595Z,12.40
2023-03-31T07:23:06.608Z,11.90
2023-03-31T07:24:06.570Z,10.70
2023-03-31T07:25:06.587Z,13.90
2023-03-31T07:26:06.642Z,10.70
2023-03-31T07:27:06.510Z,7.90
2023-03-31T07:28:06.579Z,10.30
2023-03-31T07:29:06.474Z,16.90
2023-03-31T07:30:06.454Z,10.30
2023-03-31T07:31:06.619Z,11.50
2023-03-31T07:32:06.490Z,12.40
2023-03-31T07:33:06.470Z,9.70
2023-03-31T07:34:06.426Z,9.70
2023-03-31T07:35:06.476Z,10.10
2023-03-31T07:36:12.898Z,10.30
2023-03-31T07:37:06.431Z,10.20
2023-03-31T07:38:06.362Z,8.50
2023-03-31T07:39:06.370Z,9.30
2023-03-31T07:40:06.348Z,11.20
2023-03-31T07:41:09.544Z,10.40
2023-03-31T07:42:06.327Z,8.70
2023-03-31T07:43:06.355Z,10.60
2023-03-31T07:44:06.316Z,8.90
2023-03-31T07:45:06.298Z,10.60
2023-03-31T07:46:06.463Z,9.00
2023-03-31T07:47:06.359Z,9.40
2023-03-31T07:48:06.287Z,9.10
2023-03-31T07:49:06.254Z,9.80
2023-03-31T07:50:06.242Z,8.60
2023-03-31T07:51:06.379Z,9.10
2023-03-31T07:52:06.236Z,9.10
2023-03-31T07:53:06.208Z,8.90
2023-03-31T07:54:06.217Z,11.20
2023-03-31T07:55:06.202Z,10.50
2023-03-31T07:56:06.240Z,7.50
2023-03-31T07:57:06.227Z,9.70
2023-03-31T07:58:06.156Z,10.50
2023-03-31T07:59:06.167Z,8.00
2023-03-31T08:00:06.155Z,7.50
2023-03-31T08:01:06.471Z,7.30
2023-03-31T08:02:06.126Z,6.80
2023-03-31T08:03:06.220Z,10.20
2023-03-31T08:04:06.135Z,9.30
2023-03-31T08:05:06.081Z,8.40
2023-03-31T08:06:06.307Z,8.40
2023-03-31T08:07:06.058Z,7.10
2023-03-31T08:08:06.032Z,10.10
2023-03-31T08:09:06.037Z,7.40
2023-03-31T08:10:07.514Z,10.70
2023-03-31T08:11:06.173Z,8.90
2023-03-31T08:12:06.012Z,8.30
2023-03-31T08:13:06.003Z,8.60
2023-03-31T08:14:06.013Z,7.90
2023-03-31T08:15:05.950Z,8.60
2023-03-31T08:16:06.238Z,8.60
2023-03-31T08:17:05.969Z,6.60
2023-03-31T08:18:05.962Z,7.30
2023-03-31T08:19:05.912Z,6.90
2023-03-31T08:20:07.744Z,5.70
2023-03-31T08:21:06.168Z,9.30
2023-03-31T08:22:05.949Z,8.50
2023-03-31T08:23:05.893Z,6.50
2023-03-31T08:24:05.894Z,7.00
2023-03-31T08:25:05.898Z,8.20
2023-03-31T08:26:05.990Z,7.60
2023-03-31T08:27:11.914Z,6.70
2023-03-31T08:28:05.817Z,8.90
2023-03-31T08:29:05.825Z,7.70
2023-03-31T08:30:05.815Z,6.60
2023-03-31T08:31:05.784Z,8.10
2023-03-31T08:32:05.919Z,9.20
2023-03-31T08:33:05.895Z,7.40
2023-03-31T08:34:05.826Z,6.30
2023-03-31T08:35:05.757Z,5.20
2023-03-31T08:36:06.080Z,8.70
2023-03-31T08:37:06.075Z,9.40
2023-03-31T08:38:05.693Z,6.70
2023-03-31T08:39:05.705Z,8.60
2023-03-31T08:40:05.704Z,7.10
2023-03-31T08:41:05.695Z,7.50
2023-03-31T08:42:06.053Z,5.90
2023-03-31T08:43:05.654Z,8.40
2023-03-31T08:44:05.663Z,7.80
2023-03-31T08:45:05.636Z,5.80
2023-03-31T08:46:06.040Z,6.00
2023-03-31T08:47:05.611Z,7.20
2023-03-31T08:48:07.369Z,5.80
2023-03-31T08:49:05.585Z,5.00
2023-03-31T08:50:05.595Z,5.70
2023-03-31T08:51:05.781Z,6.40
2023-03-31T08:52:05.580Z,5.60
2023-03-31T08:53:05.574Z,5.30
2023-03-31T08:54:05.603Z,8.00
2023-03-31T08:55:05.558Z,6.10
2023-03-31T08:56:05.689Z,7.50
2023-03-31T08:57:05.564Z,6.60
2023-03-31T08:58:05.484Z,10.10
2023-03-31T08:59:05.533Z,6.80
2023-03-31T09:00:05.474Z,6.40
2023-03-31T09:01:05.665Z,5.10
2023-03-31T09:02:05.521Z,6.00
2023-03-31T09:03:07.316Z,6.40
2023-03-31T09:04:07.149Z,5.70
2023-03-31T09:05:05.475Z,5.00
2023-03-31T09:06:05.432Z,3.80
2023-03-31T09:07:05.365Z,4.30
2023-03-31T09:08:05.386Z,4.30
2023-03-31T09:09:05.417Z,5.00
2023-03-31T09:10:05.363Z,5.40
2023-03-31T09:11:05.342Z,6.10
2023-03-31T09:12:05.358Z,4.60
2023-03-31T09:13:05.294Z,5.60
2023-03-31T09:14:05.313Z,5.10
2023-03-31T09:15:05.332Z,5.90
2023-03-31T09:16:05.857Z,3.70
2023-03-31T09:17:05.322Z,4.90
2023-03-31T09:18:05.253Z,5.20
2023-03-31T09:19:05.258Z,6.00
2023-03-31T09:20:05.239Z,7.10
2023-03-31T09:21:05.412Z,5.60
2023-03-31T09:22:05.218Z,5.30
2023-03-31T09:23:05.206Z,5.00
2023-03-31T09:24:05.258Z,5.60
2023-03-31T09:25:05.193Z,4.40
2023-03-31T09:26:05.529Z,4.60
2023-03-31T09:27:05.169Z,7.90
2023-03-31T09:28:05.218Z,6.30
2023-03-31T09:29:05.162Z,5.00
2023-03-31T09:30:05.144Z,5.70
2023-03-31T09:31:05.137Z,5.70
2023-03-31T09:32:05.093Z,6.00
2023-03-31T09:33:05.190Z,6.30
2023-03-31T09:34:05.125Z,6.50
2023-03-31T09:35:05.112Z,6.80
2023-03-31T09:36:05.145Z,6.80
2023-03-31T09:37:05.044Z,4.70
2023-03-31T09:38:05.052Z,4.60
2023-03-31T09:39:05.062Z,5.60
2023-03-31T09:40:05.012Z,6.50
2023-03-31T09:41:05.052Z,5.60
2023-03-31T09:42:05.073Z,10.90
2023-03-31T09:43:05.014Z,7.10
2023-03-31T09:44:04.997Z,7.00
2023-03-31T09:45:04.987Z,6.20
2023-03-31T09:46:09.125Z,4.70
2023-03-31T09:47:05.065Z,6.60
2023-03-31T09:48:04.986Z,5.10
2023-03-31T09:49:04.946Z,6.00
2023-03-31T09:50:04.878Z,6.30
2023-03-31T09:51:04.907Z,5.80
2023-03-31T09:52:04.906Z,6.20
2023-03-31T09:53:04.859Z,7.10
2023-03-31T09:54:04.885Z,6.10
2023-03-31T09:55:04.861Z,5.40
2023-03-31T09:56:05.275Z,5.00
2023-03-31T09:57:04.846Z,4.30
2023-03-31T09:58:04.841Z,6.70
2023-03-31T09:59:04.806Z,6.40
2023-03-31T10:00:04.797Z,5.90
2023-03-31T10:01:05.122Z,6.40
2023-03-31T10:02:04.922Z,5.60
2023-03-31T10:03:04.811Z,5.00
2023-03-31T10:04:04.818Z,4.50
2023-03-31T10:05:04.750Z,6.20
2023-03-31T10:06:04.749Z,5.40
2023-03-31T10:07:04.741Z,5.30
2023-03-31T10:08:04.697Z,5.80
2023-03-31T10:09:06.347Z,7.40
2023-03-31T10:10:04.692Z,6.10
2023-03-31T10:11:04.843Z,6.00
2023-03-31T10:12:04.665Z,4.50
2023-03-31T10:13:04.656Z,6.80
2023-03-31T10:14:04.654Z,4.70
2023-03-31T10:15:04.645Z,6.60
2023-03-31T10:16:04.823Z,5.40
2023-03-31T10:17:04.593Z,5.40
2023-03-31T10:18:04.634Z,5.40
2023-03-31T10:19:04.581Z,6.40
2023-03-31T10:20:04.560Z,5.00
2023-03-31T10:21:04.803Z,4.10
2023-03-31T10:22:04.563Z,4.90
2023-03-31T10:23:05.383Z,4.90
2023-03-31T10:24:04.554Z,5.40
2023-03-31T10:25:04.527Z,3.90
2023-03-31T10:26:04.501Z,4.10
2023-03-31T10:27:04.512Z,4.80
2023-03-31T10:28:11.058Z,4.90
2023-03-31T10:29:04.479Z,3.70
2023-03-31T10:30:04.460Z,5.80
2023-03-31T10:31:04.616Z,5.90
2023-03-31T10:32:04.420Z,4.20
2023-03-31T10:33:15.155Z,4.20
2023-03-31T10:34:04.424Z,5.00
2023-03-31T10:35:04.402Z,4.30
2023-03-31T10:36:04.415Z,4.50
2023-03-31T10:37:04.383Z,5.10
2023-03-31T10:38:06.076Z,4.50
2023-03-31T10:39:04.355Z,4.90
2023-03-31T10:40:04.361Z,6.70
2023-03-31T10:41:04.551Z,4.70
2023-03-31T10:42:04.315Z,4.10
2023-03-31T10:43:04.344Z,5.30
2023-03-31T10:44:04.328Z,4.10
2023-03-31T10:45:04.276Z,4.00
2023-03-31T10:46:04.349Z,3.60
2023-03-31T10:47:04.407Z,4.80
2023-03-31T10:48:04.389Z,4.90
2023-03-31T10:49:04.252Z,3.10
2023-03-31T10:50:04.250Z,3.30
2023-03-31T10:51:04.467Z,4.70
2023-03-31T10:52:04.477Z,4.00
2023-03-31T10:53:04.195Z,6.00
2023-03-31T10:54:04.343Z,5.50
2023-03-31T10:55:04.177Z,5.90
2023-03-31T10:56:04.937Z,6.60
2023-03-31T10:57:04.797Z,5.80
2023-03-31T10:58:04.168Z,5.60
2023-03-31T10:59:06.458Z,5.60
2023-03-31T11:00:04.186Z,6.50
2023-03-31T11:01:05.317Z,3.60
2023-03-31T11:02:04.224Z,5.40
2023-03-31T11:03:04.594Z,4.30
2023-03-31T11:04:04.681Z,3.90
2023-03-31T11:05:04.304Z,6.70
2023-03-31T11:06:04.530Z,3.00
2023-03-31T11:07:04.083Z,3.50
2023-03-31T11:08:04.042Z,4.10
2023-03-31T11:09:04.056Z,4.40
2023-03-31T11:10:04.016Z,4.80
2023-03-31T11:11:04.255Z,3.90
2023-03-31T11:12:03.999Z,4.20
2023-03-31T11:13:04.012Z,4.20
2023-03-31T11:14:03.978Z,3.70
2023-03-31T11:15:03.991Z,4.90
2023-03-31T11:16:04.008Z,3.30
2023-03-31T11:17:04.046Z,3.70
2023-03-31T11:18:04.000Z,3.00
2023-03-31T11:19:03.950Z,4.00
2023-03-31T11:20:03.895Z,4.30
2023-03-31T11:21:04.012Z,4.90
2023-03-31T11:22:03.882Z,4.90
2023-03-31T11:23:03.885Z,5.70
2023-03-31T11:24:03.876Z,3.20
2023-03-31T11:25:03.854Z,3.60
2023-03-31T11:26:03.838Z,5.90
2023-03-31T11:27:03.830Z,4.20
2023-03-31T11:28:03.817Z,5.50
2023-03-31T11:29:03.841Z,4.30
2023-03-31T11:30:03.826Z,4.00
2023-03-31T11:31:03.926Z,3.70
2023-03-31T11:32:03.809Z,3.10
2023-03-31T11:33:03.795Z,4.60
2023-03-31T11:34:03.846Z,3.50
2023-03-31T11:35:03.741Z,4.50
2023-03-31T11:36:03.985Z,1.80
2023-03-31T11:37:03.707Z,4.70
2023-03-31T11:38:03.707Z,3.60
2023-03-31T11:39:03.680Z,3.20
2023-03-31T11:40:03.682Z,3.20
2023-03-31T11:41:03.756Z,4.20
2023-03-31T11:42:03.655Z,3.40
2023-03-31T11:43:03.666Z,5.40
2023-03-31T11:44:03.651Z,4.40
2023-03-31T11:45:03.653Z,2.80
2023-03-31T11:46:03.675Z,4.30
2023-03-31T11:47:03.602Z,3.20
2023-03-31T11:48:06.143Z,3.90
2023-03-31T11:49:03.590Z,5.20
2023-03-31T11:50:03.585Z,3.70
2023-03-31T11:51:03.548Z,6.00
2023-03-31T11:52:03.556Z,3.90
2023-03-31T11:53:03.518Z,3.60
2023-03-31T11:54:03.527Z,3.50
2023-03-31T11:55:03.630Z,4.70
2023-03-31T11:56:03.512Z,4.60
2023-03-31T11:57:03.579Z,3.10
2023-03-31T11:58:03.479Z,4.20
2023-03-31T11:59:03.455Z,4.40
2023-03-31T12:00:03.462Z,5.30
2023-03-31T12:01:03.693Z,4.50
2023-03-31T12:02:03.421Z,4.20
2023-03-31T12:03:03.494Z,4.50
2023-03-31T12:04:03.511Z,3.90
2023-03-31T12:05:03.408Z,4.80
2023-03-31T12:06:03.389Z,4.50
2023-03-31T12:07:03.376Z,6.20
2023-03-31T12:08:03.364Z,4.50
2023-03-31T12:09:03.388Z,4.00
2023-03-31T12:10:03.365Z,6.70
2023-03-31T12:11:03.379Z,3.70
2023-03-31T12:12:03.347Z,6.10
2023-03-31T12:13:03.524Z,5.10
2023-03-31T12:14:03.294Z,4.80
2023-03-31T12:15:03.298Z,3.20
2023-03-31T12:16:03.394Z,6.60
2023-03-31T12:17:03.265Z,5.60
2023-03-31T12:18:03.295Z,4.70
2023-03-31T12:19:03.239Z,4.60
2023-03-31T12:20:03.242Z,4.60
2023-03-31T12:21:03.242Z,4.40
2023-03-31T12:22:03.205Z,5.00
2023-03-31T12:23:03.186Z,6.20
2023-03-31T12:24:03.208Z,5.60
2023-03-31T12:25:03.198Z,5.30
2023-03-31T12:26:03.174Z,4.10
2023-03-31T12:27:03.146Z,5.00
2023-03-31T12:28:03.132Z,5.20
2023-03-31T12:29:03.135Z,3.50
2023-03-31T12:30:03.122Z,4.60
2023-03-31T12:31:03.254Z,5.10
2023-03-31T12:32:03.728Z,4.10
2023-03-31T12:33:03.300Z,6.60
2023-03-31T12:34:03.221Z,4.10
2023-03-31T12:35:03.211Z,3.80
2023-03-31T12:36:03.143Z,5.00
2023-03-31T12:37:03.079Z,4.30
2023-03-31T12:38:03.041Z,5.40
2023-03-31T12:39:03.008Z,5.80
2023-03-31T12:40:03.028Z,4.20
2023-03-31T12:41:02.985Z,5.20
2023-03-31T12:42:02.993Z,4.60
2023-03-31T12:43:02.979Z,4.20
2023-03-31T12:44:02.956Z,6.60
2023-03-31T12:45:02.970Z,5.50
2023-03-31T12:46:02.947Z,4.60
2023-03-31T12:47:03.004Z,4.20
2023-03-31T12:48:02.960Z,3.90
2023-03-31T12:49:02.909Z,4.20
2023-03-31T12:50:02.913Z,4.00
2023-03-31T12:51:02.951Z,5.30
2023-03-31T12:52:02.884Z,3.90
2023-03-31T12:53:02.878Z,3.40
2023-03-31T12:54:02.876Z,4.80
2023-03-31T12:55:02.867Z,5.30
2023-03-31T12:56:02.868Z,5.60
2023-03-31T12:57:02.852Z,4.10
2023-03-31T12:58:02.826Z,3.90
2023-03-31T12:59:02.793Z,4.40
2023-03-31T13:00:02.837Z,4.60
2023-03-31T13:01:02.805Z,4.30
2023-03-31T13:02:02.819Z,5.20
2023-03-31T13:03:02.787Z,5.70
2023-03-31T13:04:02.746Z,6.90
2023-03-31T13:05:02.761Z,4.10
2023-03-31T13:06:02.727Z,4.70